Bechara Ind Park, Puerto Rico
Current Conditions -  °F | °C
As of 6:56 PM on Friday 28 Nov 2014 (Local Time) from TJSJ Reporting Station
Clear Clear  
Wind Chill: 78°   Ceiling: Unl
Heat Index: 80°   Visibility: 10mi
Dew Point: 71°   Wind: 7mph
Humidity: 79%   Direction: 80°E
Pressure: 29.94"   Gusts: NA
Location:  18.408°N, 66.0933°W
Report Text: TJSJ 282256Z 08006KT 10SM CLR 26/22 A2994 RMK AO2 SLP138 T02560217
Loading
Personal Weather Stations






























Interactive Weather Map New forecast layout! Learn more

10-Day Weather Forecast

Advertisements
Track Severe Weather on mobile